Jennersdorf, Austria
Current Conditions -  °F | °C
As of 10:50 PM on Friday 19 Dec 2014 (Local Time) from LOWG Reporting Station
Light Fog Light Fog  
Wind Chill: 37°   Ceiling: 22000
Heat Index: 37°   Visibility: 2.1mi
Dew Point: 37°   Wind: 1mph
Humidity: 100%   Direction: NA
Pressure: 29.97"   Gusts: NA
Location:  46.94°N, 16.13°E
Report Text: LOWG 192050Z VRB01KT 3500 0800S R35/1500U BCFG FEW180 BKN220 03/03 Q1015 R17/1///95 TEMPO 1200
Loading
Personal Weather Stations






























Interactive Weather Map New forecast layout! Learn more

10-Day Weather Forecast

Advertisements
Track Severe Weather on mobile